Time;durP1;ratioP1;P1;durP2;ratioP2;P2;SDS_P1;SDS_P2;PMS_P1;PMS_P2;Temp;Humidity;BMP_temperature;BMP_pressure;BME280_temperature;BME280_humidity;BME280_pressure;Samples;Min_cycle;Max_cycle;Signal;HPM_P1;HPM_P2
2022/02/12 00:00:17;;;;;;;;;;;4.90;99.90;;;;;;4168829;28;20324;-48
2022/02/12 00:02:19;;;;;;;;;;;4.80;99.90;;;;;;4171606;28;19926;-47
2022/02/12 00:04:21;;;;;;;;;;;4.80;99.90;;;;;;4174793;28;19936;-46
2022/02/12 00:06:23;;;;;;;;;;;4.80;99.90;;;;;;4170187;28;19925;-48
2022/02/12 00:08:25;;;;;;;;;;;4.80;99.90;;;;;;4173810;28;20460;-47
2022/02/12 00:10:29;;;;;;;;;;;4.80;99.90;;;;;;4174193;28;19936;-48
2022/02/12 00:12:31;;;;;;;;;;;4.80;99.90;;;;;;4172392;28;19932;-49
2022/02/12 00:14:33;;;;;;;;;;;5.00;99.90;;;;;;4174423;28;19928;-48
2022/02/12 00:16:35;;;;;;;;;;;5.00;99.90;;;;;;4174944;28;20424;-48
2022/02/12 00:18:36;;;;;;;;;;;5.10;99.90;;;;;;4173264;28;19936;-49
2022/02/12 00:20:38;;;;;;;;;;;5.10;99.90;;;;;;4176999;28;19979;-48
2022/02/12 00:22:41;;;;;;;;;;;5.10;99.90;;;;;;4172506;28;19932;-47
2022/02/12 00:24:42;;;;;;;;;;;5.00;99.90;;;;;;4173029;28;20451;-48
2022/02/12 00:26:44;;;;;;;;;;;5.00;99.90;;;;;;4177409;28;19928;-49
2022/02/12 00:28:46;;;;;;;;;;;5.10;99.90;;;;;;4174676;28;19935;-47
2022/02/12 00:30:48;;;;;;;;;;;5.10;99.90;;;;;;4175537;28;19933;-49
2022/02/12 00:32:50;;;;;;;;;;;5.10;99.90;;;;;;4175239;28;19929;-50
2022/02/12 00:34:52;;;;;;;;;;;5.10;99.90;;;;;;4175187;28;19978;-48
2022/02/12 00:36:54;;;;;;;;;;;5.10;99.90;;;;;;4169393;28;19929;-49
2022/02/12 00:38:55;;;;;;;;;;;5.10;99.90;;;;;;4177115;28;20339;-47
2022/02/12 00:40:57;;;;;;;;;;;5.00;99.90;;;;;;4169118;28;19925;-50
2022/02/12 00:42:59;;;;;;;;;;;5.00;99.90;;;;;;4161156;28;20010;-48
2022/02/12 00:45:02;;;;;;;;;;;5.00;99.90;;;;;;4175683;28;19929;-50
2022/02/12 00:47:04;;;;;;;;;;;5.00;99.90;;;;;;4172140;28;20317;-50
2022/02/12 00:49:05;;;;;;;;;;;5.00;99.90;;;;;;4175771;28;19932;-50
2022/02/12 00:51:07;;;;;;;;;;;5.00;99.90;;;;;;4168569;28;19925;-48
2022/02/12 00:53:09;;;;;;;;;;;5.00;99.90;;;;;;4165610;28;19929;-49
2022/02/12 00:55:11;;;;;;;;;;;5.00;99.90;;;;;;4162189;28;20014;-48
2022/02/12 00:57:13;;;;;;;;;;;5.00;99.90;;;;;;4164268;28;19925;-48
2022/02/12 00:59:15;;;;;;;;;;;5.00;99.90;;;;;;4165332;28;20440;-49
2022/02/12 01:01:18;;;;;;;;;;;5.00;99.90;;;;;;4160182;28;19987;-49
2022/02/12 01:03:23;;;;;;;;;;;5.00;99.90;;;;;;4164599;28;20046;-50
2022/02/12 01:05:25;;;;;;;;;;;5.00;99.90;;;;;;4168204;28;19929;-47
2022/02/12 01:07:26;;;;;;;;;;;5.00;99.90;;;;;;4165442;28;19932;-50
2022/02/12 01:09:28;;;;;;;;;;;4.90;99.90;;;;;;4174190;28;19929;-50
2022/02/12 01:11:30;;;;;;;;;;;4.90;99.90;;;;;;4174653;28;19972;-50
2022/02/12 01:13:32;;;;;;;;;;;4.90;99.90;;;;;;4162471;28;20432;-48
2022/02/12 01:15:34;;;;;;;;;;;4.80;99.90;;;;;;4174358;28;19925;-48
2022/02/12 01:17:37;;;;;;;;;;;4.70;99.90;;;;;;4171496;28;20023;-49
2022/02/12 01:19:39;;;;;;;;;;;4.50;99.90;;;;;;4162723;28;20008;-50
2022/02/12 01:21:41;;;;;;;;;;;4.60;99.90;;;;;;4164754;28;20396;-47
2022/02/12 01:23:43;;;;;;;;;;;4.60;99.90;;;;;;4167534;28;20581;-50
2022/02/12 01:25:48;;;;;;;;;;;4.70;99.90;;;;;;4175462;28;19964;-48
2022/02/12 01:27:53;;;;;;;;;;;4.70;99.90;;;;;;4172528;28;20042;-51
2022/02/12 01:29:55;;;;;;;;;;;4.70;99.90;;;;;;4168087;28;19956;-49
2022/02/12 01:32:03;;;;;;;;;;;4.80;99.90;;;;;;4169441;28;20035;-48
2022/02/12 01:34:06;;;;;;;;;;;4.80;99.90;;;;;;4176589;28;20663;-49
2022/02/12 01:36:08;;;;;;;;;;;5.00;99.90;;;;;;4174674;28;20364;-51
2022/02/12 01:38:09;;;;;;;;;;;5.10;99.90;;;;;;4171788;28;19967;-49
2022/02/12 01:40:11;;;;;;;;;;;5.30;99.90;;;;;;4173340;28;20012;-49
2022/02/12 01:42:13;;;;;;;;;;;5.40;99.90;;;;;;4173176;28;19960;-48
2022/02/12 01:44:15;;;;;;;;;;;5.50;99.90;;;;;;4173510;28;19955;-47
2022/02/12 01:46:17;;;;;;;;;;;5.50;99.90;;;;;;4168125;28;19929;-49
2022/02/12 01:48:19;;;;;;;;;;;5.50;99.90;;;;;;4167497;28;19940;-49
2022/02/12 01:50:21;;;;;;;;;;;5.50;99.90;;;;;;4175937;28;19939;-47
2022/02/12 01:52:24;;;;;;;;;;;5.50;99.90;;;;;;4173749;28;20019;-48
2022/02/12 01:54:27;;;;;;;;;;;5.40;99.90;;;;;;4177361;28;19924;-50
2022/02/12 01:56:29;;;;;;;;;;;5.60;99.90;;;;;;4177418;28;19929;-51
2022/02/12 01:58:31;;;;;;;;;;;5.50;99.90;;;;;;4172925;28;20465;-49
2022/02/12 02:00:35;;;;;;;;;;;5.60;99.90;;;;;;4172603;28;19925;-47
2022/02/12 02:02:40;;;;;;;;;;;5.80;99.90;;;;;;4177604;28;20470;-46
2022/02/12 02:04:42;;;;;;;;;;;5.70;99.90;;;;;;4174575;28;19929;-46
2022/02/12 02:06:44;;;;;;;;;;;5.60;99.90;;;;;;4175192;28;19928;-47
2022/02/12 02:08:46;;;;;;;;;;;5.80;99.90;;;;;;4178182;28;19975;-47
2022/02/12 02:10:48;;;;;;;;;;;5.90;99.90;;;;;;4176462;28;19936;-46
2022/02/12 02:12:50;;;;;;;;;;;5.90;99.90;;;;;;4175888;28;19976;-45
2022/02/12 02:14:52;;;;;;;;;;;5.90;99.90;;;;;;4178267;28;20015;-47
2022/02/12 02:16:54;;;;;;;;;;;5.90;99.90;;;;;;4174941;28;19983;-45
2022/02/12 02:18:55;;;;;;;;;;;5.90;99.90;;;;;;4176040;28;20448;-46
2022/02/12 02:20:57;;;;;;;;;;;6.00;99.90;;;;;;4178550;28;19932;-47
2022/02/12 02:22:59;;;;;;;;;;;6.00;99.90;;;;;;4177134;28;19971;-46
2022/02/12 02:25:01;;;;;;;;;;;6.10;99.90;;;;;;4177047;28;20376;-47
2022/02/12 02:27:08;;;;;;;;;;;6.30;99.90;;;;;;4177405;28;20388;-45
2022/02/12 02:29:11;;;;;;;;;;;6.30;99.90;;;;;;4168721;28;20332;-46
2022/02/12 02:31:12;;;;;;;;;;;6.40;99.90;;;;;;4163150;28;20628;-46
2022/02/12 02:33:14;;;;;;;;;;;6.50;99.90;;;;;;4177835;28;20558;-46
2022/02/12 02:35:18;;;;;;;;;;;6.60;99.90;;;;;;4174465;28;20352;-46
2022/02/12 02:37:21;;;;;;;;;;;6.60;99.90;;;;;;4178098;28;20293;-45
2022/02/12 02:39:23;;;;;;;;;;;6.60;99.90;;;;;;4176804;28;20023;-46
2022/02/12 02:41:25;;;;;;;;;;;6.70;99.90;;;;;;4171108;28;20035;-48
2022/02/12 02:43:27;;;;;;;;;;;6.70;99.90;;;;;;4176499;28;20317;-47
2022/02/12 02:45:29;;;;;;;;;;;6.70;99.90;;;;;;4175606;28;19994;-46
2022/02/12 02:47:40;;;;;;;;;;;6.70;99.90;;;;;;4173876;28;19931;-45
2022/02/12 02:49:42;;;;;;;;;;;6.80;99.90;;;;;;4162948;28;19929;-47
2022/02/12 02:56:25;;;;;;;;;;;6.70;99.90;;;;;;4165162;28;19935;-45
2022/02/12 02:58:28;;;;;;;;;;;6.70;99.90;;;;;;4177770;28;19928;-47
2022/02/12 03:00:29;;;;;;;;;;;6.70;99.90;;;;;;4176090;28;19963;-46
2022/02/12 03:02:31;;;;;;;;;;;6.70;99.90;;;;;;4176110;28;20270;-46
2022/02/12 03:04:33;;;;;;;;;;;6.60;99.90;;;;;;4168596;28;19925;-46
2022/02/12 03:06:35;;;;;;;;;;;6.60;99.90;;;;;;4174403;28;19970;-46
2022/02/12 03:08:37;;;;;;;;;;;6.60;99.90;;;;;;4174836;28;20389;-47
2022/02/12 03:10:41;;;;;;;;;;;6.50;99.90;;;;;;4176318;28;19967;-47
2022/02/12 03:12:43;;;;;;;;;;;6.50;99.90;;;;;;4173811;28;19935;-46
2022/02/12 03:14:44;;;;;;;;;;;6.50;99.90;;;;;;4174568;28;20015;-44
2022/02/12 03:16:46;;;;;;;;;;;6.50;99.90;;;;;;4170103;28;20020;-46
2022/02/12 03:18:49;;;;;;;;;;;6.40;99.90;;;;;;4167622;28;20288;-46
2022/02/12 03:20:51;;;;;;;;;;;6.40;99.90;;;;;;4165239;28;19929;-47
2022/02/12 03:22:52;;;;;;;;;;;6.40;99.90;;;;;;4168719;28;20467;-48
2022/02/12 03:24:54;;;;;;;;;;;6.40;99.90;;;;;;4187824;28;19956;-47
2022/02/12 03:26:56;;;;;;;;;;;6.40;99.90;;;;;;4162270;28;20019;-46
2022/02/12 03:28:58;;;;;;;;;;;6.30;99.90;;;;;;4175865;28;19950;-46
2022/02/12 03:31:00;;;;;;;;;;;6.30;99.90;;;;;;4167621;28;19925;-45
2022/02/12 03:33:03;;;;;;;;;;;6.20;99.90;;;;;;4169779;28;19959;-45
2022/02/12 03:35:05;;;;;;;;;;;6.20;99.90;;;;;;4172945;28;20356;-46
2022/02/12 03:37:07;;;;;;;;;;;6.20;99.90;;;;;;4175711;28;19929;-46
2022/02/12 03:39:08;;;;;;;;;;;6.20;99.90;;;;;;4171671;28;19928;-46
2022/02/12 03:41:10;;;;;;;;;;;6.20;99.90;;;;;;4166271;28;20344;-47
2022/02/12 03:43:13;;;;;;;;;;;6.20;99.90;;;;;;4166025;28;19929;-48
2022/02/12 03:45:16;;;;;;;;;;;6.10;99.90;;;;;;4173088;28;20020;-46
2022/02/12 03:47:17;;;;;;;;;;;6.10;99.90;;;;;;4166923;28;20332;-45
2022/02/12 03:49:19;;;;;;;;;;;6.00;99.90;;;;;;4166144;28;20373;-47
2022/02/12 03:51:21;;;;;;;;;;;6.10;99.90;;;;;;4168237;28;19925;-48
2022/02/12 03:53:23;;;;;;;;;;;6.10;99.90;;;;;;4175345;28;19928;-48
2022/02/12 03:55:26;;;;;;;;;;;6.10;99.90;;;;;;4173488;28;19986;-45
2022/02/12 03:57:27;;;;;;;;;;;6.10;99.90;;;;;;4177219;28;20015;-45
2022/02/12 03:59:29;;;;;;;;;;;6.10;99.90;;;;;;4171243;28;19972;-46
2022/02/12 04:01:31;;;;;;;;;;;6.10;99.90;;;;;;4172400;28;19947;-47
2022/02/12 04:03:34;;;;;;;;;;;6.10;99.90;;;;;;4177157;28;20032;-45
2022/02/12 04:05:36;;;;;;;;;;;6.10;99.90;;;;;;4173595;28;20024;-46
2022/02/12 04:07:38;;;;;;;;;;;6.10;99.90;;;;;;4174339;28;19946;-46
2022/02/12 04:09:40;;;;;;;;;;;6.10;99.90;;;;;;4176467;28;19937;-48
2022/02/12 04:11:41;;;;;;;;;;;6.00;99.90;;;;;;4176050;28;20353;-47
2022/02/12 04:13:46;;;;;;;;;;;6.00;99.90;;;;;;4175321;28;19935;-46
2022/02/12 04:15:48;;;;;;;;;;;6.00;99.90;;;;;;4176979;28;20025;-46
2022/02/12 04:17:50;;;;;;;;;;;6.00;99.90;;;;;;4172220;28;19936;-45
2022/02/12 04:19:52;;;;;;;;;;;6.00;99.90;;;;;;4175579;28;19924;-46
2022/02/12 04:21:54;;;;;;;;;;;5.90;99.90;;;;;;4176310;28;20428;-45
2022/02/12 04:23:56;;;;;;;;;;;5.90;99.90;;;;;;4174696;28;20012;-46
2022/02/12 04:26:01;;;;;;;;;;;5.90;99.90;;;;;;4175977;28;19971;-45
2022/02/12 04:28:09;;;;;;;;;;;5.90;99.90;;;;;;4163659;28;20024;-46
2022/02/12 04:30:12;;;;;;;;;;;5.90;99.90;;;;;;4168315;28;20373;-45
2022/02/12 04:32:14;;;;;;;;;;;5.90;99.90;;;;;;4175007;28;19935;-48
2022/02/12 04:34:16;;;;;;;;;;;5.90;99.90;;;;;;4174860;28;19935;-45
2022/02/12 04:36:18;;;;;;;;;;;5.90;99.90;;;;;;4172693;28;20016;-49
2022/02/12 04:38:20;;;;;;;;;;;5.80;99.90;;;;;;4175529;28;20027;-47
2022/02/12 04:40:22;;;;;;;;;;;5.80;99.90;;;;;;4169768;28;19932;-45
2022/02/12 04:42:24;;;;;;;;;;;5.80;99.90;;;;;;4172569;28;20467;-47
2022/02/12 04:44:26;;;;;;;;;;;5.80;99.90;;;;;;4161454;28;19965;-47
2022/02/12 04:46:27;;;;;;;;;;;5.80;99.90;;;;;;4167324;28;19925;-47
2022/02/12 04:48:29;;;;;;;;;;;5.80;99.90;;;;;;4166688;28;19931;-49
2022/02/12 04:50:31;;;;;;;;;;;5.90;99.90;;;;;;4161349;28;19931;-46
2022/02/12 04:52:33;;;;;;;;;;;5.90;99.90;;;;;;4169997;28;19929;-45
2022/02/12 04:54:35;;;;;;;;;;;5.90;99.90;;;;;;4174126;28;19933;-45
2022/02/12 04:56:38;;;;;;;;;;;5.90;99.90;;;;;;4161371;28;19929;-45
2022/02/12 04:58:40;;;;;;;;;;;5.90;99.90;;;;;;4175938;28;20388;-45
2022/02/12 05:00:43;;;;;;;;;;;5.90;99.90;;;;;;4175694;28;20447;-45
2022/02/12 05:02:46;;;;;;;;;;;5.90;99.90;;;;;;4168732;28;20051;-47
2022/02/12 05:04:48;;;;;;;;;;;5.80;99.90;;;;;;4174375;28;19928;-46
2022/02/12 05:06:50;;;;;;;;;;;5.80;99.90;;;;;;4167853;28;20150;-46
2022/02/12 05:08:53;;;;;;;;;;;5.80;99.90;;;;;;4169144;28;20018;-46
2022/02/12 05:10:55;;;;;;;;;;;5.70;99.90;;;;;;4172260;28;19956;-45
2022/02/12 05:12:57;;;;;;;;;;;5.70;99.90;;;;;;4166961;28;19933;-45
2022/02/12 05:14:59;;;;;;;;;;;5.70;99.90;;;;;;4172650;28;19960;-45
2022/02/12 05:17:02;;;;;;;;;;;5.70;99.90;;;;;;4175781;28;19952;-46
2022/02/12 05:19:04;;;;;;;;;;;5.70;99.90;;;;;;4175448;28;20583;-46
2022/02/12 05:21:06;;;;;;;;;;;5.70;99.90;;;;;;4174190;28;20021;-45
2022/02/12 05:23:08;;;;;;;;;;;5.70;99.90;;;;;;4172794;28;19975;-46
2022/02/12 05:25:10;;;;;;;;;;;5.70;99.90;;;;;;4170020;28;19929;-47
2022/02/12 05:27:12;;;;;;;;;;;5.60;99.90;;;;;;4175243;28;19929;-46
2022/02/12 05:29:16;;;;;;;;;;;5.60;99.90;;;;;;4174333;28;19936;-45
2022/02/12 05:31:18;;;;;;;;;;;5.60;99.90;;;;;;4172466;28;20522;-46
2022/02/12 05:33:20;;;;;;;;;;;5.60;99.90;;;;;;4177065;28;20023;-46
2022/02/12 05:35:22;;;;;;;;;;;5.60;99.90;;;;;;4173989;28;19968;-45
2022/02/12 05:37:24;;;;;;;;;;;5.60;99.90;;;;;;4172268;28;20439;-46
2022/02/12 05:39:26;;;;;;;;;;;5.60;99.90;;;;;;4179433;28;19995;-45
2022/02/12 05:41:28;;;;;;;;;;;5.50;99.90;;;;;;4174616;28;19924;-47
2022/02/12 05:43:33;;;;;;;;;;;5.50;99.90;;;;;;4176073;28;19936;-46
2022/02/12 05:45:35;;;;;;;;;;;5.50;99.90;;;;;;4178221;28;19935;-46
2022/02/12 05:47:38;;;;;;;;;;;5.40;99.90;;;;;;4175842;28;19940;-45
2022/02/12 05:49:40;;;;;;;;;;;5.50;99.90;;;;;;4176426;28;20387;-46
2022/02/12 05:51:42;;;;;;;;;;;5.40;99.90;;;;;;4177953;28;19968;-46
2022/02/12 05:53:44;;;;;;;;;;;5.40;99.90;;;;;;4176780;28;20032;-46
2022/02/12 05:55:46;;;;;;;;;;;5.40;99.90;;;;;;4177584;28;19982;-47
2022/02/12 05:57:49;;;;;;;;;;;5.30;99.90;;;;;;4177025;28;19967;-46
2022/02/12 05:59:51;;;;;;;;;;;5.40;99.90;;;;;;4174224;28;19932;-46
2022/02/12 06:01:55;;;;;;;;;;;5.40;99.90;;;;;;4176931;28;19960;-46
2022/02/12 06:03:57;;;;;;;;;;;5.40;99.90;;;;;;4176469;28;19951;-46
2022/02/12 06:05:59;;;;;;;;;;;5.40;99.90;;;;;;4171867;28;20039;-48
2022/02/12 06:08:01;;;;;;;;;;;5.40;99.90;;;;;;4177261;28;19951;-46
2022/02/12 06:10:03;;;;;;;;;;;5.40;99.90;;;;;;4176064;28;20016;-46
2022/02/12 06:12:05;;;;;;;;;;;5.30;99.90;;;;;;4168081;28;20020;-46
2022/02/12 06:14:07;;;;;;;;;;;5.30;99.90;;;;;;4164310;28;19933;-47
2022/02/12 06:16:09;;;;;;;;;;;5.20;99.90;;;;;;4173677;28;19929;-46
2022/02/12 06:18:11;;;;;;;;;;;5.30;99.90;;;;;;4169900;28;20371;-46
2022/02/12 06:20:14;;;;;;;;;;;5.30;99.90;;;;;;4193716;28;20015;-46
2022/02/12 06:22:16;;;;;;;;;;;5.30;99.90;;;;;;4171144;28;19929;-49
2022/02/12 06:24:18;;;;;;;;;;;5.30;99.90;;;;;;4173223;28;20011;-46
2022/02/12 06:26:20;;;;;;;;;;;5.30;99.90;;;;;;4178888;28;19975;-45
2022/02/12 06:28:22;;;;;;;;;;;5.20;99.90;;;;;;4172381;28;20286;-48
2022/02/12 06:30:24;;;;;;;;;;;5.20;99.90;;;;;;4176519;28;20436;-47
2022/02/12 06:32:26;;;;;;;;;;;5.30;99.90;;;;;;4163017;28;19952;-46
2022/02/12 06:34:28;;;;;;;;;;;5.30;99.90;;;;;;4174448;28;19967;-48
2022/02/12 06:36:30;;;;;;;;;;;5.30;99.90;;;;;;4169294;28;19929;-45
2022/02/12 06:38:34;;;;;;;;;;;5.30;99.90;;;;;;4172969;28;19936;-46
2022/02/12 06:40:36;;;;;;;;;;;5.20;99.90;;;;;;4172379;28;19964;-45
2022/02/12 06:42:38;;;;;;;;;;;5.30;99.90;;;;;;4166972;28;19951;-50
2022/02/12 06:44:41;;;;;;;;;;;5.30;99.90;;;;;;4171574;28;20003;-48
2022/02/12 06:46:43;;;;;;;;;;;5.30;99.90;;;;;;4173698;28;20040;-46
2022/02/12 06:48:45;;;;;;;;;;;5.30;99.90;;;;;;4166754;28;20043;-46
2022/02/12 06:50:47;;;;;;;;;;;5.30;99.90;;;;;;4173802;28;19925;-48
2022/02/12 06:52:49;;;;;;;;;;;5.30;99.90;;;;;;4172389;28;19970;-46
2022/02/12 06:54:51;;;;;;;;;;;5.30;99.90;;;;;;4175427;28;20015;-46
2022/02/12 06:56:53;;;;;;;;;;;5.30;99.90;;;;;;4165281;28;20404;-46
2022/02/12 06:58:55;;;;;;;;;;;5.40;99.90;;;;;;4175623;28;20015;-45
2022/02/12 07:00:57;;;;;;;;;;;5.30;99.90;;;;;;4165778;28;19932;-48
2022/02/12 07:02:59;;;;;;;;;;;5.40;99.90;;;;;;4171945;28;19975;-45
2022/02/12 07:05:01;;;;;;;;;;;5.40;99.90;;;;;;4168942;28;20277;-46
2022/02/12 07:07:03;;;;;;;;;;;5.40;99.90;;;;;;4170637;28;19975;-47
2022/02/12 07:09:05;;;;;;;;;;;5.30;99.90;;;;;;4176038;28;19963;-46
2022/02/12 07:11:07;;;;;;;;;;;5.30;99.90;;;;;;4174820;28;19932;-44
2022/02/12 07:13:11;;;;;;;;;;;5.30;99.90;;;;;;4175054;28;19998;-48
2022/02/12 07:15:13;;;;;;;;;;;5.30;99.90;;;;;;4174537;28;20546;-49
2022/02/12 07:17:15;;;;;;;;;;;5.40;99.90;;;;;;4171138;28;19967;-50
2022/02/12 07:19:18;;;;;;;;;;;5.40;99.90;;;;;;4172963;28;20019;-49
2022/02/12 07:21:20;;;;;;;;;;;5.40;99.90;;;;;;4174121;28;20510;-47
2022/02/12 07:23:22;;;;;;;;;;;5.50;99.90;;;;;;4174687;28;20496;-48
2022/02/12 07:25:24;;;;;;;;;;;5.50;99.90;;;;;;4164505;28;19940;-48
2022/02/12 07:27:25;;;;;;;;;;;5.50;99.90;;;;;;4169991;28;19990;-50
2022/02/12 07:29:27;;;;;;;;;;;5.50;99.90;;;;;;4175849;28;19976;-49
2022/02/12 07:31:32;;;;;;;;;;;5.50;99.90;;;;;;4166944;28;19956;-48
2022/02/12 07:33:34;;;;;;;;;;;5.50;99.90;;;;;;4173040;28;19992;-51
2022/02/12 07:35:35;;;;;;;;;;;5.50;99.90;;;;;;4169109;28;20019;-48
2022/02/12 07:37:38;;;;;;;;;;;5.60;99.90;;;;;;4162874;28;20016;-48
2022/02/12 07:39:40;;;;;;;;;;;5.70;99.90;;;;;;4171564;28;19967;-48
2022/02/12 07:41:42;;;;;;;;;;;5.70;99.90;;;;;;4174375;28;19971;-49
2022/02/12 07:43:45;;;;;;;;;;;5.70;99.90;;;;;;4168033;28;19929;-50
2022/02/12 07:45:47;;;;;;;;;;;5.80;99.90;;;;;;4170499;28;19926;-50
2022/02/12 07:47:49;;;;;;;;;;;5.80;99.90;;;;;;4176823;28;19967;-47
2022/02/12 07:49:53;;;;;;;;;;;5.80;99.90;;;;;;4176559;28;20212;-50
2022/02/12 07:51:55;;;;;;;;;;;5.90;99.90;;;;;;4181989;28;20518;-48
2022/02/12 07:53:58;;;;;;;;;;;5.80;99.90;;;;;;4165738;28;19929;-47
2022/02/12 07:56:00;;;;;;;;;;;5.80;99.90;;;;;;4171111;28;20012;-49
2022/02/12 07:58:02;;;;;;;;;;;5.70;99.90;;;;;;4172832;28;19952;-49
2022/02/12 08:00:05;;;;;;;;;;;5.80;99.90;;;;;;4164286;28;19925;-49
2022/02/12 08:02:07;;;;;;;;;;;5.80;99.90;;;;;;4176059;28;19924;-48
2022/02/12 08:04:09;;;;;;;;;;;5.70;99.90;;;;;;4173470;28;19925;-48
2022/02/12 08:07:27;;;;;;;;;;;5.90;99.90;;;;;;4167150;28;19992;-49
2022/02/12 08:08:33;;;;;;;;;;;5.90;99.90;;;;;;4170648;28;19948;-47
2022/02/12 08:12:55;;;;;;;;;;;6.00;99.90;;;;;;4169558;28;20394;-49
2022/02/12 08:14:57;;;;;;;;;;;6.10;99.90;;;;;;4176673;28;19925;-51
2022/02/12 08:16:59;;;;;;;;;;;6.10;99.90;;;;;;4168044;28;19972;-51
2022/02/12 08:19:01;;;;;;;;;;;6.10;99.90;;;;;;4166520;28;19947;-51
2022/02/12 08:21:03;;;;;;;;;;;6.00;99.90;;;;;;4173691;28;19928;-51
2022/02/12 08:23:05;;;;;;;;;;;6.00;99.90;;;;;;4166620;28;20032;-51
2022/02/12 08:25:07;;;;;;;;;;;6.00;99.90;;;;;;4163721;28;20991;-51
2022/02/12 08:27:10;;;;;;;;;;;6.00;99.90;;;;;;4168460;28;20043;-48
2022/02/12 08:29:12;;;;;;;;;;;6.00;99.90;;;;;;4172544;28;20253;-49
2022/02/12 08:31:14;;;;;;;;;;;6.00;99.90;;;;;;4173309;28;20011;-50
2022/02/12 08:33:16;;;;;;;;;;;6.00;99.90;;;;;;4166264;28;20059;-49
2022/02/12 08:35:31;;;;;;;;;;;6.00;99.90;;;;;;4177213;28;19929;-50
2022/02/12 08:37:35;;;;;;;;;;;6.10;99.90;;;;;;4177169;28;19932;-52
2022/02/12 08:39:37;;;;;;;;;;;6.10;99.90;;;;;;4180472;28;19929;-51
2022/02/12 08:41:39;;;;;;;;;;;6.20;99.90;;;;;;4177251;28;20023;-48
2022/02/12 08:43:40;;;;;;;;;;;6.20;99.90;;;;;;4176436;28;20472;-50
2022/02/12 08:45:43;;;;;;;;;;;6.30;99.90;;;;;;4179583;28;19971;-51
2022/02/12 08:47:45;;;;;;;;;;;6.40;99.90;;;;;;4176952;28;19924;-50
2022/02/12 08:49:47;;;;;;;;;;;6.60;99.90;;;;;;4171894;28;20919;-48
2022/02/12 08:51:51;;;;;;;;;;;6.90;99.90;;;;;;4174623;28;19983;-49
2022/02/12 08:53:53;;;;;;;;;;;7.00;99.90;;;;;;4176398;28;20355;-49
2022/02/12 08:55:55;;;;;;;;;;;7.00;99.90;;;;;;4177884;28;19968;-50
2022/02/12 08:57:57;;;;;;;;;;;7.10;99.90;;;;;;4179769;28;20440;-50
2022/02/12 08:59:59;;;;;;;;;;;7.20;99.90;;;;;;4177002;28;20011;-50
2022/02/12 09:02:01;;;;;;;;;;;7.30;99.90;;;;;;4178683;28;22068;-48
2022/02/12 09:04:04;;;;;;;;;;;7.30;99.90;;;;;;4175163;28;19969;-49
2022/02/12 09:06:06;;;;;;;;;;;7.30;99.90;;;;;;4169525;28;19968;-49
2022/02/12 09:08:08;;;;;;;;;;;7.30;99.90;;;;;;4165293;28;19925;-52
2022/02/12 09:10:10;;;;;;;;;;;7.40;99.90;;;;;;4166874;28;20379;-51
2022/02/12 09:12:12;;;;;;;;;;;7.30;99.90;;;;;;4166835;28;19964;-50
2022/02/12 09:14:14;;;;;;;;;;;7.30;99.90;;;;;;4166564;28;19925;-49
2022/02/12 09:16:17;;;;;;;;;;;7.50;99.90;;;;;;4171795;28;19928;-50
2022/02/12 09:18:19;;;;;;;;;;;7.60;99.90;;;;;;4174835;28;19929;-51
2022/02/12 09:20:21;;;;;;;;;;;7.60;99.90;;;;;;4163836;28;19929;-51
2022/02/12 09:22:23;;;;;;;;;;;7.80;99.90;;;;;;4175154;28;19935;-50
2022/02/12 09:24:25;;;;;;;;;;;7.90;99.90;;;;;;4176214;28;19968;-50
2022/02/12 09:26:32;;;;;;;;;;;8.00;99.90;;;;;;4175795;28;20011;-48
2022/02/12 09:28:34;;;;;;;;;;;7.90;99.90;;;;;;4166561;28;19925;-50
2022/02/12 09:30:38;;;;;;;;;;;8.00;99.90;;;;;;4168159;28;19929;-49
2022/02/12 09:32:39;;;;;;;;;;;8.00;99.90;;;;;;4166953;28;20068;-51
2022/02/12 09:34:41;;;;;;;;;;;8.00;99.90;;;;;;4169765;28;20019;-48
2022/02/12 09:36:43;;;;;;;;;;;7.80;99.90;;;;;;4178728;28;20367;-49
2022/02/12 09:38:45;;;;;;;;;;;8.00;99.90;;;;;;4177082;28;19975;-48
2022/02/12 09:40:47;;;;;;;;;;;7.90;99.90;;;;;;4175580;28;19994;-49
2022/02/12 09:42:54;;;;;;;;;;;7.90;99.90;;;;;;4161837;28;19932;-49
2022/02/12 09:44:56;;;;;;;;;;;7.80;99.90;;;;;;4178022;28;20408;-49
2022/02/12 09:46:58;;;;;;;;;;;7.70;99.90;;;;;;4176074;28;19975;-49
2022/02/12 09:49:01;;;;;;;;;;;7.70;99.90;;;;;;4179156;28;19924;-50
2022/02/12 09:51:04;;;;;;;;;;;7.50;99.90;;;;;;4176790;28;19967;-49
2022/02/12 09:53:06;;;;;;;;;;;7.40;99.90;;;;;;4176203;28;19979;-49
2022/02/12 09:55:08;;;;;;;;;;;7.50;99.90;;;;;;4178249;28;19935;-51
2022/02/12 09:57:10;;;;;;;;;;;7.40;99.90;;;;;;4170756;28;19947;-51
2022/02/12 09:59:12;;;;;;;;;;;7.30;99.90;;;;;;4168918;28;19929;-51
2022/02/12 10:01:15;;;;;;;;;;;7.30;99.90;;;;;;4172212;28;19975;-51
2022/02/12 10:03:17;;;;;;;;;;;7.40;99.90;;;;;;4175149;28;19947;-50
2022/02/12 10:05:23;;;;;;;;;;;7.40;99.90;;;;;;4176293;28;20272;-52
2022/02/12 10:07:26;;;;;;;;;;;7.30;99.90;;;;;;4168938;28;20396;-51
2022/02/12 10:09:28;;;;;;;;;;;7.50;99.90;;;;;;4172156;28;19983;-51
2022/02/12 10:11:38;;;;;;;;;;;7.70;99.90;;;;;;4168319;28;19975;-49
2022/02/12 10:13:40;;;;;;;;;;;7.70;99.90;;;;;;4172547;28;19975;-51
2022/02/12 10:15:44;;;;;;;;;;;7.60;99.90;;;;;;4174854;28;19960;-52
2022/02/12 10:17:56;;;;;;;;;;;7.60;99.90;;;;;;4167796;28;20429;-48
2022/02/12 10:20:02;;;;;;;;;;;7.70;99.90;;;;;;4172735;28;20353;-52
2022/02/12 10:22:15;;;;;;;;;;;8.10;99.90;;;;;;4176324;28;19960;-49
2022/02/12 10:24:20;;;;;;;;;;;8.40;99.90;;;;;;4170322;28;19931;-48
2022/02/12 10:26:23;;;;;;;;;;;8.80;99.90;;;;;;4169536;28;20278;-52
2022/02/12 10:28:26;;;;;;;;;;;8.60;99.90;;;;;;4176439;28;19979;-48
2022/02/12 10:30:28;;;;;;;;;;;8.60;99.90;;;;;;4168800;28;19932;-48
2022/02/12 10:32:36;;;;;;;;;;;8.70;99.90;;;;;;4171405;28;19925;-50
2022/02/12 10:34:39;;;;;;;;;;;9.00;99.90;;;;;;4177844;28;20027;-51
2022/02/12 10:36:42;;;;;;;;;;;8.70;99.90;;;;;;4170025;28;19984;-51
2022/02/12 10:38:46;;;;;;;;;;;8.20;99.90;;;;;;4167911;28;19932;-52
2022/02/12 10:41:03;;;;;;;;;;;7.80;99.90;;;;;;4170710;28;20448;-51
2022/02/12 10:43:06;;;;;;;;;;;7.80;99.90;;;;;;4171786;28;19925;-50
2022/02/12 10:45:08;;;;;;;;;;;7.90;99.90;;;;;;4177922;28;20484;-50
2022/02/12 10:47:13;;;;;;;;;;;8.00;99.90;;;;;;4171827;28;20027;-51
2022/02/12 10:49:16;;;;;;;;;;;8.40;99.90;;;;;;4170974;28;20015;-50
2022/02/12 10:51:18;;;;;;;;;;;8.40;99.90;;;;;;4162918;28;20701;-50
2022/02/12 10:53:19;;;;;;;;;;;8.40;99.90;;;;;;4176413;28;19929;-49
2022/02/12 10:55:32;;;;;;;;;;;8.60;99.90;;;;;;4168934;28;19925;-52
2022/02/12 10:57:38;;;;;;;;;;;8.60;99.90;;;;;;4169656;28;19928;-52
2022/02/12 10:59:44;;;;;;;;;;;8.80;99.90;;;;;;4166782;28;19932;-50
2022/02/12 11:01:47;;;;;;;;;;;8.50;99.90;;;;;;4167688;28;20496;-52
2022/02/12 11:03:49;;;;;;;;;;;8.60;99.90;;;;;;4168247;28;19929;-51
2022/02/12 11:05:52;;;;;;;;;;;8.40;99.90;;;;;;4176590;28;20019;-51
2022/02/12 11:07:54;;;;;;;;;;;8.40;99.90;;;;;;4181234;28;20367;-50
2022/02/12 11:09:56;;;;;;;;;;;8.60;99.90;;;;;;4165177;28;19963;-51
2022/02/12 11:12:03;;;;;;;;;;;9.10;99.90;;;;;;4160822;28;20465;-51
2022/02/12 11:14:08;;;;;;;;;;;9.40;99.90;;;;;;4163834;28;19971;-51
2022/02/12 11:16:09;;;;;;;;;;;9.30;99.90;;;;;;4161565;28;19929;-51
2022/02/12 11:18:12;;;;;;;;;;;9.40;99.90;;;;;;4168840;28;19955;-51
2022/02/12 11:20:15;;;;;;;;;;;9.70;99.90;;;;;;4171053;28;19929;-49
2022/02/12 11:22:17;;;;;;;;;;;10.10;99.90;;;;;;4162987;28;19947;-51
2022/02/12 11:24:32;;;;;;;;;;;9.80;99.90;;;;;;4163434;28;19963;-51
2022/02/12 11:26:40;;;;;;;;;;;9.60;99.90;;;;;;4163168;28;19928;-52
2022/02/12 11:28:42;;;;;;;;;;;9.20;99.90;;;;;;4160733;28;20016;-51
2022/02/12 11:30:45;;;;;;;;;;;9.40;99.90;;;;;;4163690;28;20007;-51
2022/02/12 11:32:46;;;;;;;;;;;9.70;99.90;;;;;;4162170;28;20035;-49
2022/02/12 11:34:57;;;;;;;;;;;9.90;99.90;;;;;;4173843;28;20470;-51
2022/02/12 11:37:25;;;;;;;;;;;9.50;99.90;;;;;;4164499;28;19932;-52
2022/02/12 11:39:27;;;;;;;;;;;10.10;99.90;;;;;;4165044;28;20409;-51
2022/02/12 11:41:31;;;;;;;;;;;10.10;99.90;;;;;;4166676;28;19925;-52
2022/02/12 11:43:36;;;;;;;;;;;10.10;99.90;;;;;;4172776;28;20011;-51
2022/02/12 11:45:53;;;;;;;;;;;10.50;99.90;;;;;;4164388;28;19925;-52
2022/02/12 11:48:13;;;;;;;;;;;10.50;99.90;;;;;;4174611;28;19935;-51
2022/02/12 11:50:16;;;;;;;;;;;10.20;99.90;;;;;;4168132;28;20032;-51
2022/02/12 11:52:18;;;;;;;;;;;10.20;99.90;;;;;;4168097;28;19963;-51
2022/02/12 11:54:40;;;;;;;;;;;10.50;99.90;;;;;;4161976;28;19929;-51
2022/02/12 11:56:45;;;;;;;;;;;10.70;99.90;;;;;;4172101;28;19960;-50
2022/02/12 11:58:57;;;;;;;;;;;10.70;99.90;;;;;;4171147;28;19928;-51
2022/02/12 12:00:59;;;;;;;;;;;10.50;99.90;;;;;;4160033;28;20044;-51
2022/02/12 12:03:04;;;;;;;;;;;10.60;99.90;;;;;;4173235;28;19936;-51
2022/02/12 12:05:13;;;;;;;;;;;10.40;99.90;;;;;;4166065;28;20023;-51
2022/02/12 12:07:14;;;;;;;;;;;10.70;99.90;;;;;;4164817;28;19935;-51
2022/02/12 12:09:16;;;;;;;;;;;10.90;99.90;;;;;;4172282;28;20012;-50
2022/02/12 12:11:22;;;;;;;;;;;11.20;99.90;;;;;;4167940;28;19935;-52